Paron, AR (72122)

6:15 PM CST on February 08, 2016 (GMT -0600)
Hot Springs Village | | Change Station
CLOSE
Current Station
Personal Weather Station
Location: Hot Springs Village, AR
Elevation: 564 ft
Nearby Weather Stations
Active Advisory: High Wind Advisory

Elev 564 ft 34.64 °N, 92.90 °W | Updated 15 minutes ago

Partly Cloudy
Partly Cloudy
42.8 °F
Feels Like 38 °F
N
7.3
Wind Variable Wind from NW

Today
High -- | Low -- °F
--% Chance of Precip.
Yesterday
High -- | Low -- °F
Precip. -- in
Pressure 30.07 in
Visibility 10.0 miles
Clouds Few 7500 ft
Windchill 38 °F
Dew Point 17 °F
Humidity 35%
Rainfall 0.00 in
Snow Depth Not available.
7:04 AM 5:47 PM
New Moon, 0% visible
METAR KHOT 082353Z AUTO 32007G16KT 10SM FEW075 07/M09 A3007 RMK AO2 SLP181 T00721094 10094 20067 53005
Pressure 30.07 in
Visibility 10.0 miles
Clouds Few 7500 ft
Windchill 38 °F
Dew Point 17 °F
Humidity 35%
Rainfall 0.00 in
Snow Depth Not available.
7:04 AM 5:47 PM
New Moon, 0% visible
METAR KHOT 082353Z AUTO 32007G16KT 10SM FEW075 07/M09 A3007 RMK AO2 SLP181 T00721094 10094 20067 53005

10-Day Weather Forecast

Almanac

Astronomy

Feb. 08, 2016 Rise Set
Actual Time
Civil Twilight
Nautical Twilight
Astronomical Twilight
Moon
Length of Visible Light
Length of Day
Tomorrow will be .
, % of the Moon is Illuminated

Today's Extremes

State Highs State Lows

Community

WunderPhotos

Upload Photos

1,891,527 photos uploaded!

WunderBlog® & News

Nearby

Air Quality

  Air Quality AQ Index Pollutant
Not available.

Snow Depth

Station Depth Elevation

Earthquake Activity

City Distance Mag. Time & Date
Minimum magnitude displayed is 2.5.

Coastal Water Temperatures

Place Temperature

Stations

Nearby Weather Stations

Station Location Temp. Windchill Dew Point Humidity Wind Precip. Elev Updated Type
                   

Watches & Warnings

High Wind Advisory
Issued: 6:07 PM CST Feb. 8, 2016 – National Weather Service

... Wind Advisory has expired...

The strongest winds have weakened over the past hour or so... but
some breezy conditions will remain possible through tonight.